createdAt,value
2023-05-10T00:00:15.955Z,5.90
2023-05-10T00:02:42.717Z,5.93
2023-05-10T00:05:09.384Z,6.67
2023-05-10T00:07:35.857Z,6.20
2023-05-10T00:10:02.276Z,5.83
2023-05-10T00:12:28.769Z,5.13
2023-05-10T00:14:55.351Z,6.17
2023-05-10T00:17:21.872Z,5.93
2023-05-10T00:19:48.297Z,7.67
2023-05-10T00:22:14.888Z,5.80
2023-05-10T00:24:41.333Z,6.40
2023-05-10T00:27:08.008Z,5.63
2023-05-10T00:29:34.896Z,5.33
2023-05-10T00:32:01.535Z,6.23
2023-05-10T00:34:28.275Z,6.53
2023-05-10T00:36:54.798Z,6.40
2023-05-10T00:39:21.324Z,6.90
2023-05-10T00:41:47.803Z,6.07
2023-05-10T00:44:14.272Z,6.17
2023-05-10T00:46:40.957Z,6.30
2023-05-10T00:49:07.592Z,5.87
2023-05-10T00:51:34.176Z,5.67
2023-05-10T00:54:00.764Z,5.50
2023-05-10T00:56:27.904Z,5.93
2023-05-10T00:58:54.415Z,6.60
2023-05-10T01:01:20.998Z,6.13
2023-05-10T01:03:47.960Z,6.63
2023-05-10T01:06:14.531Z,6.30
2023-05-10T01:08:41.272Z,5.90
2023-05-10T01:11:07.764Z,6.10
2023-05-10T01:13:37.243Z,6.50
2023-05-10T01:16:04.489Z,6.87
2023-05-10T01:18:31.922Z,6.77
2023-05-10T01:21:11.877Z,5.40
2023-05-10T01:23:53.058Z,6.73
2023-05-10T01:26:29.743Z,6.50
2023-05-10T01:29:12.814Z,6.17
2023-05-10T01:31:57.481Z,6.00
2023-05-10T01:34:29.963Z,6.70
2023-05-10T01:36:59.654Z,5.80
2023-05-10T01:39:31.264Z,7.00
2023-05-10T01:42:07.445Z,6.30
2023-05-10T01:44:40.168Z,6.33
2023-05-10T01:47:18.185Z,6.60
2023-05-10T01:49:47.556Z,7.33
2023-05-10T01:52:16.893Z,7.13
2023-05-10T01:54:45.763Z,6.60
2023-05-10T01:57:15.099Z,7.17
2023-05-10T01:59:44.156Z,6.83
2023-05-10T02:02:13.110Z,6.77
2023-05-10T02:04:40.695Z,7.23
2023-05-10T02:07:08.276Z,6.90
2023-05-10T02:09:35.822Z,12.70
2023-05-10T02:12:03.603Z,7.77
2023-05-10T02:14:30.287Z,7.53
2023-05-10T02:16:57.088Z,7.43
2023-05-10T02:19:24.601Z,7.77
2023-05-10T02:21:52.324Z,6.90
2023-05-10T02:24:19.206Z,6.63
2023-05-10T02:26:46.535Z,6.37
2023-05-10T02:29:13.591Z,8.13
2023-05-10T02:31:40.226Z,7.43
2023-05-10T02:34:07.953Z,7.10
2023-05-10T02:36:34.533Z,7.10
2023-05-10T02:39:02.811Z,6.23
2023-05-10T02:41:31.777Z,6.87
2023-05-10T02:44:00.402Z,7.00
2023-05-10T02:46:27.031Z,7.37
2023-05-10T02:48:53.637Z,7.23
2023-05-10T02:51:20.769Z,6.57
2023-05-10T02:53:48.071Z,6.33
2023-05-10T02:56:24.722Z,7.00
2023-05-10T02:58:51.200Z,6.43
2023-05-10T03:01:17.667Z,6.63
2023-05-10T03:03:44.131Z,6.73
2023-05-10T03:06:10.705Z,7.30
2023-05-10T03:08:37.278Z,8.23
2023-05-10T03:11:09.844Z,6.90
2023-05-10T03:13:57.532Z,6.50
2023-05-10T03:16:26.448Z,6.37
2023-05-10T03:18:57.602Z,5.80
2023-05-10T03:21:27.080Z,7.50
2023-05-10T03:24:10.098Z,6.50
2023-05-10T03:26:38.129Z,6.63
2023-05-10T03:29:05.384Z,5.77
2023-05-10T03:31:31.970Z,5.60
2023-05-10T03:33:58.411Z,6.40
2023-05-10T03:36:24.881Z,6.93
2023-05-10T03:38:51.425Z,6.53
2023-05-10T03:41:17.958Z,5.37
2023-05-10T03:43:44.489Z,6.50
2023-05-10T03:46:11.084Z,5.67
2023-05-10T03:48:37.638Z,5.30
2023-05-10T03:51:04.289Z,5.93
2023-05-10T03:53:30.809Z,5.17
2023-05-10T03:55:57.265Z,5.10
2023-05-10T03:58:23.789Z,5.20
2023-05-10T04:00:50.266Z,4.90
2023-05-10T04:03:16.950Z,4.83
2023-05-10T04:05:43.498Z,4.67
2023-05-10T04:08:10.084Z,4.60
2023-05-10T04:10:36.688Z,4.70
2023-05-10T04:13:06.276Z,4.70
2023-05-10T04:15:33.353Z,4.73
2023-05-10T04:17:59.967Z,4.57
2023-05-10T04:20:26.566Z,4.60
2023-05-10T04:22:53.188Z,4.37
2023-05-10T04:25:19.800Z,4.87
2023-05-10T04:27:46.471Z,4.67
2023-05-10T04:30:13.058Z,5.03
2023-05-10T04:32:39.670Z,4.77
2023-05-10T04:35:06.471Z,4.93
2023-05-10T04:37:32.943Z,3.33
2023-05-10T04:40:00.989Z,3.50
2023-05-10T04:42:27.490Z,3.97
2023-05-10T04:44:54.062Z,3.63
2023-05-10T04:47:20.694Z,4.00
2023-05-10T04:49:47.290Z,3.63
2023-05-10T04:52:13.787Z,3.77
2023-05-10T04:54:40.293Z,3.63
2023-05-10T04:57:06.765Z,3.70
2023-05-10T04:59:33.227Z,4.27
2023-05-10T05:01:59.796Z,3.70
2023-05-10T05:04:26.485Z,3.97
2023-05-10T05:06:54.002Z,4.00
2023-05-10T05:09:20.946Z,3.87
2023-05-10T05:11:47.397Z,3.87
2023-05-10T05:14:13.923Z,4.23
2023-05-10T05:16:40.460Z,4.07
2023-05-10T05:19:06.997Z,3.30
2023-05-10T05:21:33.903Z,4.57
2023-05-10T05:24:00.916Z,3.23
2023-05-10T05:26:27.909Z,4.00
2023-05-10T05:28:55.633Z,3.40
2023-05-10T05:31:22.476Z,3.87
2023-05-10T05:33:48.998Z,3.77
2023-05-10T05:36:15.431Z,4.03
2023-05-10T05:38:41.970Z,4.10
2023-05-10T05:41:08.438Z,4.17
2023-05-10T05:43:37.457Z,4.10
2023-05-10T05:46:04.733Z,4.37
2023-05-10T05:48:31.815Z,4.47
2023-05-10T05:50:58.543Z,3.87
2023-05-10T05:53:25.035Z,4.03
2023-05-10T05:55:55.420Z,3.73
2023-05-10T05:58:22.792Z,3.70
2023-05-10T06:00:49.455Z,2.93
2023-05-10T06:03:16.600Z,3.67
2023-05-10T06:05:43.299Z,3.80
2023-05-10T06:08:09.779Z,3.37
2023-05-10T06:10:36.347Z,3.50
2023-05-10T06:13:02.976Z,3.20
2023-05-10T06:15:29.561Z,3.23
2023-05-10T06:17:56.649Z,3.47
2023-05-10T06:20:23.142Z,4.10
2023-05-10T06:22:49.699Z,3.47
2023-05-10T06:25:18.990Z,2.90
2023-05-10T06:27:49.089Z,3.07
2023-05-10T06:30:17.666Z,3.17
2023-05-10T06:32:45.173Z,3.37
2023-05-10T06:35:11.778Z,3.10
2023-05-10T06:37:38.263Z,3.03
2023-05-10T06:40:05.042Z,2.33
2023-05-10T06:42:31.635Z,3.37
2023-05-10T06:44:58.114Z,2.47
2023-05-10T06:47:24.550Z,3.13
2023-05-10T06:49:50.979Z,4.43
2023-05-10T06:52:17.505Z,2.83
2023-05-10T06:54:44.068Z,3.33
2023-05-10T06:57:23.280Z,3.03
2023-05-10T06:59:50.189Z,3.87
2023-05-10T07:02:16.735Z,2.50
2023-05-10T07:04:43.349Z,2.67
2023-05-10T07:07:09.867Z,3.00
2023-05-10T07:09:36.440Z,2.90
2023-05-10T07:12:03.030Z,2.93
2023-05-10T07:14:29.511Z,2.67
2023-05-10T07:16:56.243Z,2.40
2023-05-10T07:19:22.912Z,2.10
2023-05-10T07:21:49.358Z,2.40
2023-05-10T07:24:15.995Z,2.97
2023-05-10T07:26:42.507Z,2.87
2023-05-10T07:29:09.070Z,2.77
2023-05-10T07:31:36.169Z,2.23
2023-05-10T07:34:02.647Z,2.17
2023-05-10T07:36:29.127Z,2.40
2023-05-10T07:38:55.734Z,2.27
2023-05-10T07:41:22.186Z,2.30
2023-05-10T07:43:48.641Z,2.40
2023-05-10T07:46:15.276Z,2.47
2023-05-10T07:48:42.358Z,2.13
2023-05-10T07:51:10.435Z,2.80
2023-05-10T07:53:37.062Z,2.77
2023-05-10T07:56:21.096Z,2.20
2023-05-10T07:58:47.593Z,2.00
2023-05-10T08:01:14.058Z,2.13
2023-05-10T08:03:40.721Z,2.20
2023-05-10T08:06:07.291Z,2.03
2023-05-10T08:08:33.821Z,2.57
2023-05-10T08:11:00.308Z,2.70
2023-05-10T08:13:26.807Z,2.40
2023-05-10T08:15:54.222Z,2.30
2023-05-10T08:18:22.213Z,2.63
2023-05-10T08:20:48.821Z,2.33
2023-05-10T08:23:15.357Z,2.83
2023-05-10T08:25:42.079Z,2.17
2023-05-10T08:28:10.059Z,2.10
2023-05-10T08:30:38.474Z,2.60
2023-05-10T08:33:04.950Z,2.40
2023-05-10T08:35:32.038Z,2.60
2023-05-10T08:37:58.606Z,2.23
2023-05-10T08:40:25.375Z,2.37
2023-05-10T08:43:12.111Z,2.43
2023-05-10T08:45:40.236Z,2.20
2023-05-10T08:48:11.243Z,2.40
2023-05-10T08:50:38.495Z,2.50
2023-05-10T08:53:07.004Z,1.80
2023-05-10T08:55:34.530Z,2.37
2023-05-10T08:58:01.274Z,2.27
2023-05-10T09:00:29.354Z,1.90
2023-05-10T09:02:56.013Z,2.30
2023-05-10T09:05:22.761Z,1.90
2023-05-10T09:07:49.250Z,2.17
2023-05-10T09:10:16.330Z,2.33
2023-05-10T09:12:45.076Z,2.30
2023-05-10T09:15:11.906Z,1.93
2023-05-10T09:17:42.419Z,1.88
2023-05-10T09:20:09.060Z,2.20
2023-05-10T09:22:36.061Z,2.63
2023-05-10T09:25:09.992Z,2.10
2023-05-10T09:27:36.876Z,2.30
2023-05-10T09:30:04.502Z,2.43
2023-05-10T09:32:41.115Z,2.10
2023-05-10T09:35:11.557Z,2.77
2023-05-10T09:37:40.886Z,2.13
2023-05-10T09:40:08.620Z,2.33
2023-05-10T09:42:35.601Z,2.57
2023-05-10T09:45:05.692Z,2.00
2023-05-10T09:47:35.899Z,2.60
2023-05-10T09:50:05.694Z,2.50
2023-05-10T09:52:46.481Z,2.47
2023-05-10T09:55:13.228Z,1.90
2023-05-10T09:57:39.839Z,2.37
2023-05-10T10:00:06.998Z,2.10
2023-05-10T10:02:34.144Z,2.40
2023-05-10T10:05:06.778Z,2.43
2023-05-10T10:07:33.907Z,1.67
2023-05-10T10:10:00.475Z,2.00
2023-05-10T10:12:28.702Z,2.00
2023-05-10T10:14:56.326Z,2.00
2023-05-10T10:17:22.824Z,1.90
2023-05-10T10:19:49.470Z,1.57
2023-05-10T10:22:16.074Z,2.13
2023-05-10T10:24:42.721Z,1.70
2023-05-10T10:27:15.274Z,2.10
2023-05-10T10:29:50.936Z,2.43
2023-05-10T10:32:31.144Z,2.13
2023-05-10T10:34:58.110Z,1.77
2023-05-10T10:37:25.138Z,1.87
2023-05-10T10:39:51.755Z,1.60
2023-05-10T10:42:38.186Z,1.30
2023-05-10T10:45:14.539Z,2.33
2023-05-10T10:47:41.281Z,2.03
2023-05-10T10:50:09.261Z,2.00
2023-05-10T10:52:39.309Z,1.83
2023-05-10T10:55:16.280Z,2.07
2023-05-10T10:58:01.681Z,2.10
2023-05-10T11:00:32.874Z,1.53
2023-05-10T11:03:00.866Z,1.50
2023-05-10T11:05:37.569Z,1.80
2023-05-10T11:08:10.193Z,1.70
2023-05-10T11:10:36.724Z,1.70
2023-05-10T11:13:04.250Z,1.80
2023-05-10T11:15:36.933Z,2.00
2023-05-10T11:18:20.142Z,1.90
2023-05-10T11:21:06.906Z,1.63
2023-05-10T11:23:34.280Z,2.00
2023-05-10T11:26:02.288Z,1.30
2023-05-10T11:28:29.406Z,1.80
2023-05-10T11:30:56.018Z,1.53
2023-05-10T11:33:22.547Z,1.83
2023-05-10T11:35:49.061Z,1.90
2023-05-10T11:38:15.885Z,1.70
2023-05-10T11:40:42.594Z,1.93
2023-05-10T11:43:09.981Z,1.50
2023-05-10T11:45:36.558Z,1.60
2023-05-10T11:48:03.663Z,1.60
2023-05-10T11:50:30.171Z,2.20
2023-05-10T11:52:57.180Z,2.00
2023-05-10T11:55:25.205Z,1.67
2023-05-10T11:57:55.588Z,1.87
2023-05-10T12:00:22.422Z,1.50
2023-05-10T12:02:49.695Z,1.50
2023-05-10T12:05:16.434Z,1.50
2023-05-10T12:07:43.039Z,1.03
2023-05-10T12:10:10.746Z,1.57
2023-05-10T12:12:44.410Z,2.10
2023-05-10T12:15:21.043Z,1.70
2023-05-10T12:17:48.133Z,2.10
2023-05-10T12:20:21.892Z,3.80
2023-05-10T12:22:52.348Z,1.57
2023-05-10T12:25:19.352Z,1.50
2023-05-10T12:27:52.787Z,2.20
2023-05-10T12:30:23.096Z,1.50
2023-05-10T12:32:49.813Z,1.80
2023-05-10T12:35:16.996Z,1.90
2023-05-10T12:37:44.368Z,1.93
2023-05-10T12:40:12.114Z,1.57
2023-05-10T12:42:39.418Z,1.60
2023-05-10T12:45:06.593Z,1.90
2023-05-10T12:47:33.374Z,1.83
2023-05-10T12:50:01.198Z,1.60
2023-05-10T12:52:33.097Z,1.73
2023-05-10T12:55:00.198Z,1.60
2023-05-10T12:57:26.702Z,1.90
2023-05-10T12:59:53.197Z,2.10
2023-05-10T13:02:20.110Z,1.90
2023-05-10T13:04:48.945Z,2.00
2023-05-10T13:07:17.464Z,2.00
2023-05-10T13:09:44.428Z,1.83
2023-05-10T13:12:11.064Z,1.67
2023-05-10T13:14:37.547Z,1.87
2023-05-10T13:17:04.046Z,2.20
2023-05-10T13:19:30.585Z,1.80
2023-05-10T13:21:57.357Z,1.87
2023-05-10T13:24:23.864Z,2.00
2023-05-10T13:26:50.486Z,1.83
2023-05-10T13:29:19.128Z,2.40
2023-05-10T13:31:45.855Z,2.27
2023-05-10T13:34:12.594Z,2.10
2023-05-10T13:36:39.186Z,1.80
2023-05-10T13:39:06.385Z,2.07
2023-05-10T13:41:32.967Z,2.00
2023-05-10T13:43:59.411Z,2.00
2023-05-10T13:46:25.931Z,2.10
2023-05-10T13:48:52.439Z,2.00
2023-05-10T13:51:18.916Z,1.77
2023-05-10T13:53:45.445Z,2.23
2023-05-10T13:56:11.956Z,1.90
2023-05-10T13:58:38.535Z,1.83
2023-05-10T14:01:05.936Z,1.70
2023-05-10T14:03:33.678Z,2.07
2023-05-10T14:06:00.392Z,2.10
2023-05-10T14:08:28.093Z,2.03
2023-05-10T14:10:54.643Z,2.10
2023-05-10T14:13:21.101Z,1.90
2023-05-10T14:15:47.634Z,1.70
2023-05-10T14:18:14.181Z,2.00
2023-05-10T14:20:40.942Z,2.20
2023-05-10T14:23:08.368Z,1.80
2023-05-10T14:25:35.957Z,1.92
2023-05-10T14:28:02.519Z,2.00
2023-05-10T14:30:29.014Z,2.03
2023-05-10T14:32:55.481Z,1.50
2023-05-10T14:35:22.538Z,2.17
2023-05-10T14:37:49.150Z,1.90
2023-05-10T14:40:16.260Z,1.87
2023-05-10T14:42:43.370Z,1.83
2023-05-10T14:45:10.724Z,2.10
2023-05-10T14:47:37.324Z,2.10
2023-05-10T14:50:03.967Z,2.10
2023-05-10T14:55:14.492Z,1.83
2023-05-10T14:57:41.000Z,1.80
2023-05-10T15:00:07.831Z,1.73
2023-05-10T15:02:34.882Z,2.00
2023-05-10T15:05:01.991Z,1.77
2023-05-10T15:07:28.836Z,1.87
2023-05-10T15:09:55.435Z,1.70
2023-05-10T15:12:22.303Z,2.00
2023-05-10T15:14:48.755Z,2.00
2023-05-10T15:17:15.283Z,1.97
2023-05-10T15:19:41.740Z,1.80
2023-05-10T15:22:08.154Z,1.90
2023-05-10T15:24:35.291Z,1.60
2023-05-10T15:27:01.853Z,4.43
2023-05-10T15:29:28.355Z,12.27
2023-05-10T15:31:54.860Z,1.80
2023-05-10T15:34:21.330Z,2.20
2023-05-10T15:36:47.782Z,2.03
2023-05-10T15:39:14.454Z,2.00
2023-05-10T15:41:41.490Z,2.03
2023-05-10T15:44:07.977Z,1.77
2023-05-10T15:46:34.703Z,2.10
2023-05-10T15:49:01.234Z,2.10
2023-05-10T15:51:27.703Z,2.23
2023-05-10T15:54:05.725Z,2.47
2023-05-10T15:56:34.633Z,3.00
2023-05-10T15:59:01.209Z,2.67
2023-05-10T16:01:28.594Z,2.70
2023-05-10T16:03:55.156Z,3.93
2023-05-10T16:06:21.651Z,2.30
2023-05-10T16:08:48.113Z,2.03
2023-05-10T16:11:14.596Z,2.20
2023-05-10T16:13:41.237Z,2.00
2023-05-10T16:16:08.974Z,1.80
2023-05-10T16:18:35.812Z,2.50
2023-05-10T16:21:05.475Z,2.10
2023-05-10T16:23:32.202Z,2.47
2023-05-10T16:25:58.659Z,2.13
2023-05-10T16:28:25.250Z,2.10
2023-05-10T16:30:51.815Z,2.50
2023-05-10T16:33:18.383Z,3.40
2023-05-10T16:35:44.839Z,2.27
2023-05-10T16:38:11.476Z,2.40
2023-05-10T16:40:37.985Z,2.87
2023-05-10T16:43:04.651Z,2.33
2023-05-10T16:45:32.015Z,2.80
2023-05-10T16:47:58.461Z,2.63
2023-05-10T16:50:24.998Z,3.07
2023-05-10T16:52:51.505Z,3.10
2023-05-10T16:55:18.180Z,2.63
2023-05-10T16:57:44.963Z,2.40
2023-05-10T17:00:12.063Z,2.90
2023-05-10T17:02:39.293Z,3.23
2023-05-10T17:05:05.947Z,3.10
2023-05-10T17:07:32.400Z,3.70
2023-05-10T17:09:59.467Z,3.13
2023-05-10T17:12:26.141Z,2.70
2023-05-10T17:14:52.807Z,3.27
2023-05-10T17:17:19.318Z,3.63
2023-05-10T17:19:45.835Z,3.23
2023-05-10T17:22:12.913Z,3.10
2023-05-10T17:24:39.324Z,3.03
2023-05-10T17:27:05.845Z,3.23
2023-05-10T17:29:32.631Z,3.13
2023-05-10T17:31:59.425Z,2.87
2023-05-10T17:34:25.957Z,3.10
2023-05-10T17:36:52.465Z,3.40
2023-05-10T17:39:19.165Z,2.90
2023-05-10T17:41:45.862Z,3.03
2023-05-10T17:44:13.450Z,2.93
2023-05-10T17:46:39.952Z,3.07
2023-05-10T17:49:06.390Z,2.70
2023-05-10T17:51:33.250Z,2.93
2023-05-10T17:54:00.104Z,2.87
2023-05-10T17:56:27.094Z,2.80
2023-05-10T17:58:53.560Z,2.90
2023-05-10T18:01:20.460Z,2.83
2023-05-10T18:03:49.422Z,2.67
2023-05-10T18:06:15.969Z,3.50
2023-05-10T18:08:42.468Z,3.67
2023-05-10T18:11:08.913Z,3.40
2023-05-10T18:13:35.318Z,3.57
2023-05-10T18:16:01.780Z,3.73
2023-05-10T18:18:28.284Z,4.00
2023-05-10T18:20:57.919Z,3.90
2023-05-10T18:23:24.717Z,3.97
2023-05-10T18:25:51.819Z,3.50
2023-05-10T18:28:18.370Z,4.30
2023-05-10T18:30:44.998Z,4.33
2023-05-10T18:33:12.122Z,3.63
2023-05-10T18:35:40.259Z,3.60
2023-05-10T18:38:07.910Z,4.30
2023-05-10T18:40:34.557Z,4.40
2023-05-10T18:43:01.278Z,4.13
2023-05-10T18:45:30.041Z,4.27
2023-05-10T18:47:56.611Z,3.73
2023-05-10T18:50:37.810Z,3.53
2023-05-10T18:53:04.339Z,3.90
2023-05-10T18:55:30.900Z,5.07
2023-05-10T18:57:57.421Z,4.50
2023-05-10T19:00:30.297Z,4.47
2023-05-10T19:02:56.847Z,4.03
2023-05-10T19:05:30.423Z,4.93
2023-05-10T19:07:57.245Z,5.47
2023-05-10T19:10:23.823Z,4.70
2023-05-10T19:12:50.793Z,4.37
2023-05-10T19:15:19.272Z,4.93
2023-05-10T19:17:47.451Z,5.30
2023-05-10T19:20:16.281Z,4.60
2023-05-10T19:22:58.053Z,4.47
2023-05-10T19:25:29.713Z,4.50
2023-05-10T19:27:57.640Z,4.10
2023-05-10T19:30:24.839Z,4.60
2023-05-10T19:32:51.376Z,3.70
2023-05-10T19:35:18.196Z,4.37
2023-05-10T19:37:47.790Z,4.80
2023-05-10T19:40:17.509Z,8.87
2023-05-10T19:42:44.169Z,4.30
2023-05-10T19:45:12.679Z,4.07
2023-05-10T19:47:39.312Z,4.63
2023-05-10T19:50:09.039Z,4.80
2023-05-10T19:52:35.651Z,4.80
2023-05-10T19:55:04.970Z,5.00
2023-05-10T19:57:31.716Z,6.03
2023-05-10T19:59:58.216Z,5.43
2023-05-10T20:02:24.718Z,5.77
2023-05-10T20:04:51.375Z,11.43
2023-05-10T20:07:17.877Z,8.30
2023-05-10T20:09:44.466Z,9.50
2023-05-10T20:12:11.056Z,5.20
2023-05-10T20:14:37.535Z,5.17
2023-05-10T20:17:04.183Z,4.97
2023-05-10T20:19:30.712Z,7.67
2023-05-10T20:21:58.759Z,5.10
2023-05-10T20:24:25.321Z,4.80
2023-05-10T20:26:51.802Z,4.83
2023-05-10T20:29:18.305Z,5.73
2023-05-10T20:31:44.753Z,5.63
2023-05-10T20:34:11.273Z,6.43
2023-05-10T20:36:38.228Z,5.20
2023-05-10T20:39:04.737Z,5.33
2023-05-10T20:41:31.403Z,5.83
2023-05-10T20:43:57.885Z,6.03
2023-05-10T20:46:24.470Z,5.90
2023-05-10T20:48:50.963Z,5.67
2023-05-10T20:51:18.755Z,5.70
2023-05-10T20:53:45.488Z,5.50
2023-05-10T20:56:12.057Z,5.13
2023-05-10T20:58:38.665Z,5.90
2023-05-10T21:01:05.177Z,5.40
2023-05-10T21:03:31.643Z,5.83
2023-05-10T21:05:58.199Z,5.43
2023-05-10T21:08:24.632Z,5.87
2023-05-10T21:10:51.068Z,7.03
2023-05-10T21:13:17.529Z,6.97
2023-05-10T21:15:44.166Z,5.33
2023-05-10T21:18:10.925Z,5.33
2023-05-10T21:20:37.399Z,5.23
2023-05-10T21:23:03.940Z,5.87
2023-05-10T21:25:30.987Z,6.30
2023-05-10T21:27:57.738Z,5.20
2023-05-10T21:30:24.292Z,6.63
2023-05-10T21:32:50.946Z,4.57
2023-05-10T21:35:17.714Z,5.07
2023-05-10T21:37:44.304Z,4.97
2023-05-10T21:40:11.303Z,4.53
2023-05-10T21:42:37.903Z,4.50
2023-05-10T21:45:04.640Z,4.80
2023-05-10T21:47:31.235Z,4.23
2023-05-10T21:49:57.697Z,4.40
2023-05-10T21:52:24.198Z,4.20
2023-05-10T21:54:50.660Z,5.60
2023-05-10T21:57:17.338Z,4.20
2023-05-10T21:59:43.839Z,5.27
2023-05-10T22:02:10.464Z,4.37
2023-05-10T22:04:36.975Z,4.17
2023-05-10T22:07:03.489Z,4.03
2023-05-10T22:09:30.046Z,4.13
2023-05-10T22:11:56.525Z,4.03
2023-05-10T22:14:23.108Z,4.13
2023-05-10T22:16:49.606Z,3.53
2023-05-10T22:19:16.442Z,4.43
2023-05-10T22:21:43.017Z,4.37
2023-05-10T22:24:09.488Z,3.83
2023-05-10T22:26:36.084Z,3.40
2023-05-10T22:29:03.504Z,3.87
2023-05-10T22:31:30.034Z,3.97
2023-05-10T22:33:56.548Z,3.67
2023-05-10T22:36:23.236Z,3.77
2023-05-10T22:38:49.707Z,4.30
2023-05-10T22:41:16.236Z,3.97
2023-05-10T22:43:42.677Z,4.20
2023-05-10T22:46:09.339Z,3.30
2023-05-10T22:48:35.834Z,3.57
2023-05-10T22:51:02.261Z,3.27
2023-05-10T22:53:28.697Z,3.50
2023-05-10T22:55:55.379Z,3.40
2023-05-10T22:58:21.926Z,3.00
2023-05-10T23:00:48.419Z,3.50
2023-05-10T23:03:14.910Z,3.97
2023-05-10T23:05:41.487Z,3.83
2023-05-10T23:08:08.002Z,4.13
2023-05-10T23:10:34.516Z,4.40
2023-05-10T23:13:01.188Z,3.40
2023-05-10T23:15:27.615Z,3.60
2023-05-10T23:17:54.200Z,3.10
2023-05-10T23:20:21.086Z,3.77
2023-05-10T23:22:47.840Z,3.27
2023-05-10T23:25:14.315Z,4.20
2023-05-10T23:27:40.864Z,8.63
2023-05-10T23:30:07.621Z,6.87
2023-05-10T23:32:34.144Z,6.63
2023-05-10T23:35:00.948Z,6.03
2023-05-10T23:37:27.939Z,4.20
2023-05-10T23:39:54.622Z,4.03
2023-05-10T23:42:21.093Z,4.20
2023-05-10T23:44:47.544Z,4.33
2023-05-10T23:47:13.990Z,4.03
2023-05-10T23:49:42.199Z,4.50
2023-05-10T23:52:09.021Z,4.30
2023-05-10T23:54:35.535Z,4.13
2023-05-10T23:57:02.025Z,4.10
2023-05-10T23:59:28.598Z,4.37
